createdAt,value
2018-05-02T00:01:15.958Z,7.22
2018-05-02T00:02:15.497Z,7.24
2018-05-02T00:04:10.875Z,7.28
2018-05-02T00:05:09.356Z,7.33
2018-05-02T00:07:02.775Z,7.16
2018-05-02T00:08:02.640Z,7.19
2018-05-02T00:09:56.108Z,7.11
2018-05-02T00:10:57.023Z,7.16
2018-05-02T00:12:50.359Z,7.15
2018-05-02T00:13:49.479Z,7.16
2018-05-02T00:15:42.860Z,7.16
2018-05-02T00:16:42.364Z,7.11
2018-05-02T00:18:36.398Z,7.10
2018-05-02T00:19:35.708Z,7.15
2018-05-02T00:21:29.530Z,7.06
2018-05-02T00:22:30.040Z,7.01
2018-05-02T00:24:22.898Z,7.00
2018-05-02T00:25:22.408Z,7.00
2018-05-02T00:27:16.266Z,6.99
2018-05-02T00:28:15.874Z,7.01
2018-05-02T00:30:11.252Z,7.01
2018-05-02T00:31:09.810Z,6.93
2018-05-02T00:33:05.119Z,6.96
2018-05-02T00:34:04.898Z,6.99
2018-05-02T00:35:56.896Z,7.03
2018-05-02T00:36:56.571Z,6.99
2018-05-02T00:38:51.294Z,6.97
2018-05-02T00:39:51.191Z,6.92
2018-05-02T00:41:44.776Z,6.92
2018-05-02T00:42:43.760Z,6.89
2018-05-02T00:44:37.545Z,6.88
2018-05-02T00:45:37.183Z,6.78
2018-05-02T00:47:31.464Z,6.83
2018-05-02T00:48:30.405Z,6.86
2018-05-02T00:50:25.455Z,6.97
2018-05-02T00:51:23.718Z,6.86
2018-05-02T00:53:17.526Z,6.96
2018-05-02T00:54:17.786Z,6.79
2018-05-02T00:56:10.585Z,6.74
2018-05-02T00:57:10.436Z,6.73
2018-05-02T00:59:04.798Z,6.68
2018-05-02T01:00:04.549Z,6.78
2018-05-02T01:01:57.226Z,6.74
2018-05-02T01:02:59.727Z,6.68
2018-05-02T01:04:50.876Z,6.67
2018-05-02T01:05:51.058Z,6.65
2018-05-02T01:07:44.276Z,6.75
2018-05-02T01:08:43.839Z,6.75
2018-05-02T01:10:39.187Z,6.73
2018-05-02T01:11:37.777Z,6.65
2018-05-02T01:13:31.517Z,6.78
2018-05-02T01:14:31.458Z,6.71
2018-05-02T01:16:24.899Z,6.73
2018-05-02T01:17:24.507Z,6.73
2018-05-02T01:19:17.864Z,6.70
2018-05-02T01:20:17.816Z,6.65
2018-05-02T01:22:11.608Z,6.64
2018-05-02T01:23:11.154Z,6.78
2018-05-02T01:25:04.927Z,6.70
2018-05-02T01:26:04.550Z,6.67
2018-05-02T01:27:58.085Z,6.65
2018-05-02T01:28:57.912Z,6.64
2018-05-02T01:30:52.816Z,6.68
2018-05-02T01:31:51.256Z,6.60
2018-05-02T01:33:45.201Z,6.55
2018-05-02T01:34:44.593Z,6.56
2018-05-02T01:36:38.917Z,6.55
2018-05-02T01:37:37.968Z,6.60
2018-05-02T01:39:31.754Z,6.52
2018-05-02T01:40:31.742Z,6.64
2018-05-02T01:42:25.098Z,6.65
2018-05-02T01:43:25.027Z,6.65
2018-05-02T01:45:18.907Z,6.70
2018-05-02T01:46:18.056Z,6.81
2018-05-02T01:48:11.848Z,6.67
2018-05-02T01:49:12.045Z,6.68
2018-05-02T01:51:05.193Z,6.65
2018-05-02T01:52:04.939Z,6.61
2018-05-02T01:53:58.602Z,6.65
2018-05-02T01:54:59.043Z,6.52
2018-05-02T01:56:51.795Z,6.73
2018-05-02T01:57:51.395Z,6.55
2018-05-02T01:59:45.367Z,6.57
2018-05-02T02:00:44.778Z,6.56
2018-05-02T02:02:40.032Z,6.61
2018-05-02T02:03:38.141Z,6.55
2018-05-02T02:05:31.905Z,6.56
2018-05-02T02:06:31.825Z,6.63
2018-05-02T02:08:25.406Z,6.61
2018-05-02T02:09:24.845Z,6.53
2018-05-02T02:11:18.672Z,6.56
2018-05-02T02:12:18.226Z,6.57
2018-05-02T02:14:12.012Z,6.55
2018-05-02T02:15:11.540Z,6.56
2018-05-02T02:17:05.402Z,6.60
2018-05-02T02:18:05.073Z,6.57
2018-05-02T02:19:59.281Z,6.50
2018-05-02T02:20:58.859Z,6.61
2018-05-02T02:22:52.670Z,6.43
